Time;durP1;ratioP1;P1;durP2;ratioP2;P2;SDS_P1;SDS_P2;PMS_P1;PMS_P2;Temp;Humidity;BMP_temperature;BMP_pressure;BME280_temperature;BME280_humidity;BME280_pressure;Samples;Min_cycle;Max_cycle;Signal;HPM_P1;HPM_P2
2023/02/27 00:02:15;;;;;;;0.20;0.20;;;-0.80;99.90;;;;;;5031162;28;20119;-75
2023/02/27 00:04:41;;;;;;;0.30;0.30;;;-0.90;99.90;;;;;;5037472;28;20065;-75
2023/02/27 00:07:07;;;;;;;0.22;0.22;;;-0.90;99.90;;;;;;5037393;28;20037;-75
2023/02/27 00:09:33;;;;;;;0.30;0.30;;;-0.80;99.90;;;;;;5039727;28;20482;-75
2023/02/27 00:11:58;;;;;;;0.28;0.28;;;-0.80;99.90;;;;;;5050744;28;20088;-75
2023/02/27 00:14:24;;;;;;;0.30;0.30;;;-0.80;99.90;;;;;;5019464;28;20043;-74
2023/02/27 00:16:50;;;;;;;0.20;0.20;;;-0.80;99.90;;;;;;5056809;28;20033;-75
2023/02/27 00:19:15;;;;;;;0.25;0.25;;;-0.80;99.90;;;;;;5057504;28;20031;-75
2023/02/27 00:21:43;;;;;;;0.20;0.20;;;-0.80;99.90;;;;;;5056919;28;20500;-75
2023/02/27 00:24:09;;;;;;;0.20;0.20;;;-0.70;99.90;;;;;;5039108;28;20067;-75
2023/02/27 00:26:35;;;;;;;0.20;0.20;;;-0.70;99.90;;;;;;5057000;28;20021;-75
2023/02/27 00:29:01;;;;;;;0.20;0.20;;;-0.80;99.90;;;;;;5037011;28;20116;-75
2023/02/27 00:31:26;;;;;;;0.30;0.30;;;-0.80;99.90;;;;;;5037251;28;20056;-75
2023/02/27 00:33:52;;;;;;;0.20;0.20;;;-0.90;99.90;;;;;;5035785;28;20398;-75
2023/02/27 00:36:21;;;;;;;0.30;0.30;;;-1.00;99.90;;;;;;5039511;28;20042;-75
2023/02/27 00:38:47;;;;;;;0.20;0.20;;;-1.00;99.90;;;;;;5049039;28;20049;-75
2023/02/27 00:41:12;;;;;;;0.20;0.20;;;-1.10;99.90;;;;;;5036742;28;20134;-75
2023/02/27 00:43:38;;;;;;;0.20;0.20;;;-1.20;99.90;;;;;;5036588;28;20065;-75
2023/02/27 00:46:04;;;;;;;0.30;0.30;;;-1.20;99.90;;;;;;5036853;28;20029;-75
2023/02/27 00:48:29;;;;;;;0.20;0.20;;;-1.20;99.90;;;;;;5036333;28;20029;-75
2023/02/27 00:50:55;;;;;;;0.20;0.20;;;-1.30;99.90;;;;;;5036786;28;20135;-75
2023/02/27 00:53:23;;;;;;;0.20;0.20;;;-1.30;99.90;;;;;;5037806;28;20372;-75
2023/02/27 00:55:48;;;;;;;0.30;0.30;;;-1.30;99.90;;;;;;5038657;28;20052;-75
2023/02/27 00:58:14;;;;;;;0.20;0.20;;;-1.20;99.90;;;;;;5056421;28;20421;-75
2023/02/27 01:00:39;;;;;;;0.30;0.30;;;-1.10;99.90;;;;;;5056560;28;20112;-75
2023/02/27 01:03:10;;;;;;;0.30;0.30;;;-1.10;99.90;;;;;;5056188;28;20032;-75
2023/02/27 01:05:36;;;;;;;0.28;0.28;;;-1.00;99.90;;;;;;5040353;28;20080;-75
2023/02/27 01:08:01;;;;;;;0.30;0.30;;;-1.00;99.90;;;;;;5036874;28;20496;-75
2023/02/27 01:10:27;;;;;;;0.20;0.20;;;-0.90;99.90;;;;;;5036412;28;20029;-75
2023/02/27 01:12:52;;;;;;;0.20;0.20;;;-0.90;99.90;;;;;;5048335;28;20106;-75
2023/02/27 01:15:18;;;;;;;0.20;0.20;;;-0.80;99.90;;;;;;5042458;28;20033;-75
2023/02/27 01:17:44;;;;;;;0.20;0.20;;;-0.80;99.90;;;;;;5038374;28;20577;-75
2023/02/27 01:20:14;;;;;;;0.20;0.20;;;-0.70;99.90;;;;;;5055645;28;20540;-74
2023/02/27 01:22:39;;;;;;;0.28;0.28;;;-0.70;99.90;;;;;;5038350;28;20394;-75
2023/02/27 01:25:08;;;;;;;0.25;0.25;;;-0.70;99.90;;;;;;5035944;28;20033;-75
2023/02/27 01:27:35;;;;;;;0.30;0.30;;;-0.60;99.90;;;;;;5033494;28;20025;-75
2023/02/27 01:30:01;;;;;;;0.30;0.30;;;-0.50;99.90;;;;;;5051472;28;20032;-75
2023/02/27 01:32:26;;;;;;;0.20;0.20;;;-0.50;99.90;;;;;;5055595;28;20021;-75
2023/02/27 01:34:52;;;;;;;0.30;0.30;;;-0.50;99.90;;;;;;5056289;28;20025;-75
2023/02/27 01:37:17;;;;;;;0.20;0.20;;;-0.50;99.90;;;;;;5034103;28;20071;-75
2023/02/27 01:39:43;;;;;;;0.20;0.20;;;-0.40;99.90;;;;;;5056081;28;20021;-75
2023/02/27 01:42:21;;;;;;;0.20;0.20;;;-0.40;99.90;;;;;;5040040;28;20026;-75
2023/02/27 01:45:11;;;;;;;0.17;0.17;;;-0.30;99.90;;;;;;5025511;28;20037;-75
2023/02/27 01:47:47;;;;;;;0.20;0.20;;;-0.30;99.90;;;;;;5035599;28;20013;-75
2023/02/27 01:50:14;;;;;;;0.20;0.20;;;-0.20;99.90;;;;;;5048128;28;20086;-74
2023/02/27 01:52:41;;;;;;;0.20;0.20;;;-0.30;99.90;;;;;;5037717;28;20449;-74
2023/02/27 01:55:08;;;;;;;0.20;0.20;;;-0.20;99.90;;;;;;5054908;28;20082;-75
2023/02/27 01:57:34;;;;;;;0.10;0.10;;;-0.20;99.90;;;;;;5054610;28;20041;-75
2023/02/27 02:00:00;;;;;;;0.20;0.20;;;-0.20;99.90;;;;;;5043060;28;20033;-75
2023/02/27 02:02:32;;;;;;;0.25;0.25;;;-0.10;99.90;;;;;;5053832;28;20043;-74
2023/02/27 02:04:58;;;;;;;0.20;0.20;;;-0.10;99.90;;;;;;5044122;28;20014;-75
2023/02/27 02:07:24;;;;;;;0.30;0.30;;;-0.10;99.90;;;;;;5055358;28;20057;-75
2023/02/27 02:09:53;;;;;;;0.20;0.20;;;0.00;99.90;;;;;;5044112;28;20116;-75
2023/02/27 02:12:22;;;;;;;0.20;0.20;;;0.00;99.90;;;;;;5034859;28;20024;-75
2023/02/27 02:14:48;;;;;;;0.20;0.20;;;0.00;99.90;;;;;;5034968;28;20041;-75
2023/02/27 02:17:19;;;;;;;0.25;0.25;;;0.00;99.90;;;;;;5035256;28;20022;-75
2023/02/27 02:19:45;;;;;;;0.20;0.20;;;0.10;99.90;;;;;;5035302;28;20021;-75
2023/02/27 02:23:05;;;;;;;0.22;0.22;;;0.10;99.90;;;;;;5035539;28;20053;-75
2023/02/27 02:26:00;;;;;;;0.10;0.10;;;0.10;99.90;;;;;;4954726;28;20043;-75
2023/02/27 02:29:05;;;;;;;0.13;0.13;;;0.10;99.90;;;;;;5034612;28;20384;-75
2023/02/27 02:31:49;;;;;;;;;;;0.10;99.90;;;;;;5034306;28;20045;-75
2023/02/27 02:34:52;;;;;;;0.17;0.17;;;0.10;99.90;;;;;;5034785;28;19912;-75
2023/02/27 02:37:56;;;;;;;0.20;0.20;;;0.10;99.90;;;;;;5016837;28;20067;-75
2023/02/27 02:40:23;;;;;;;0.20;0.20;;;0.20;99.90;;;;;;5034873;28;20564;-75
2023/02/27 02:43:05;;;;;;;0.20;0.20;;;0.20;99.90;;;;;;5034890;28;20028;-74
2023/02/27 02:45:47;;;;;;;0.20;0.20;;;0.20;99.90;;;;;;5034929;28;20025;-75
2023/02/27 02:48:25;;;;;;;0.28;0.28;;;0.20;99.90;;;;;;5034428;28;20024;-75
2023/02/27 02:51:03;;;;;;;0.28;0.28;;;0.20;99.90;;;;;;5034556;28;20496;-74
2023/02/27 02:53:38;;;;;;;0.20;0.20;;;0.30;99.90;;;;;;5034718;28;20079;-75
2023/02/27 02:56:20;;;;;;;0.20;0.20;;;0.40;99.90;;;;;;5034050;28;20053;-75
2023/02/27 02:58:48;;;;;;;0.20;0.20;;;0.30;99.90;;;;;;5035007;28;20040;-75
2023/02/27 03:01:23;;;;;;;0.20;0.20;;;0.40;99.90;;;;;;5034480;28;20053;-75
2023/02/27 03:03:55;;;;;;;0.30;0.30;;;0.40;99.90;;;;;;5035128;28;20414;-75
2023/02/27 03:06:54;;;;;;;0.20;0.20;;;0.40;99.90;;;;;;5034331;28;20029;-75
2023/02/27 03:09:32;;;;;;;0.22;0.22;;;0.40;99.90;;;;;;5034707;28;20017;-75
2023/02/27 03:12:00;;;;;;;0.20;0.20;;;0.40;99.90;;;;;;5034811;28;20029;-75
2023/02/27 03:14:36;;;;;;;0.20;0.20;;;0.40;99.90;;;;;;5034476;28;20087;-75
2023/02/27 03:17:14;;;;;;;0.20;0.20;;;0.40;99.90;;;;;;5016522;28;20030;-75
2023/02/27 03:19:45;;;;;;;0.20;0.20;;;0.30;99.90;;;;;;5034142;28;20467;-75
2023/02/27 03:22:17;;;;;;;0.22;0.22;;;0.30;99.90;;;;;;5035014;28;20380;-75
2023/02/27 03:24:48;;;;;;;0.20;0.20;;;0.30;99.90;;;;;;5034317;28;20532;-75
2023/02/27 03:27:16;;;;;;;0.25;0.25;;;0.40;99.90;;;;;;5034109;28;20044;-75
2023/02/27 03:30:04;;;;;;;0.20;0.20;;;0.30;99.90;;;;;;5034222;28;20072;-75
2023/02/27 03:32:53;;;;;;;0.30;0.30;;;0.30;99.90;;;;;;5035488;28;20028;-75
2023/02/27 03:35:18;;;;;;;0.20;0.20;;;0.40;99.90;;;;;;5034319;28;20033;-75
2023/02/27 03:37:54;;;;;;;0.20;0.20;;;0.30;99.90;;;;;;5034240;28;20030;-75
2023/02/27 03:40:37;;;;;;;0.20;0.20;;;0.40;99.90;;;;;;5034146;28;20032;-75
2023/02/27 03:43:17;;;;;;;0.20;0.20;;;0.40;99.90;;;;;;5032971;28;20095;-73
2023/02/27 03:46:08;;;;;;;0.28;0.28;;;0.30;99.90;;;;;;5042503;28;20065;-74
2023/02/27 03:48:35;;;;;;;0.20;0.20;;;0.40;99.90;;;;;;5053532;28;20079;-75
2023/02/27 03:51:00;;;;;;;0.20;0.20;;;0.30;99.90;;;;;;5053783;28;20071;-74
2023/02/27 03:53:40;;;;;;;0.30;0.30;;;0.20;99.90;;;;;;5053369;28;20429;-74
2023/02/27 03:56:08;;;;;;;0.25;0.25;;;0.10;99.90;;;;;;5041114;28;20534;-75
2023/02/27 03:58:34;;;;;;;0.10;0.10;;;0.00;99.90;;;;;;5035828;28;20045;-74
2023/02/27 04:01:00;;;;;;;0.30;0.30;;;-0.10;99.90;;;;;;5030481;28;20021;-74
2023/02/27 04:03:27;;;;;;;0.22;0.22;;;-0.20;99.90;;;;;;5053377;28;20091;-74
2023/02/27 04:07:18;;;;;;;0.20;0.20;;;-0.20;99.90;;;;;;5053772;28;20029;-75
2023/02/27 04:08:59;;;;;;;0.20;0.20;;;-0.40;99.90;;;;;;5046681;28;20030;-75
2023/02/27 04:12:00;;;;;;;0.30;0.30;;;-0.40;99.90;;;;;;5037209;28;20017;-73
2023/02/27 04:14:39;;;;;;;0.20;0.20;;;-0.40;99.90;;;;;;5040624;28;20490;-75
2023/02/27 04:17:16;;;;;;;0.30;0.30;;;-0.40;99.90;;;;;;5037663;28;20033;-74
2023/02/27 04:20:06;;;;;;;0.13;0.13;;;-0.30;99.90;;;;;;5037766;28;20115;-74
2023/02/27 04:22:37;;;;;;;1.35;1.35;;;-0.20;99.90;;;;;;5054993;28;20028;-75
2023/02/27 04:25:30;;;;;;;2.28;2.17;;;-0.20;99.90;;;;;;5038753;28;20033;-74
2023/02/27 04:28:28;;;;;;;3.58;3.38;;;-0.20;99.90;;;;;;5057264;28;20394;-75
2023/02/27 04:31:04;;;;;;;0.30;0.30;;;-0.20;99.90;;;;;;5057978;28;20017;-75
2023/02/27 04:33:50;;;;;;;1.77;1.67;;;-0.20;99.90;;;;;;5056870;28;20139;-74
2023/02/27 04:36:37;;;;;;;3.20;3.03;;;-0.10;99.90;;;;;;5057155;28;20021;-74
2023/02/27 04:39:09;;;;;;;8.23;7.75;;;-0.10;99.90;;;;;;5057426;28;20047;-74
2023/02/27 04:41:42;;;;;;;3.70;3.50;;;-0.10;99.90;;;;;;5056177;28;20021;-74
2023/02/27 04:44:10;;;;;;;0.40;0.40;;;-0.20;99.90;;;;;;5056878;28;20077;-75
2023/02/27 04:46:39;;;;;;;2.47;2.38;;;-0.30;99.90;;;;;;5056525;28;20057;-74
2023/02/27 04:49:26;;;;;;;6.47;6.07;;;-0.50;99.90;;;;;;5056491;28;20108;-75
2023/02/27 04:52:02;;;;;;;6.70;6.20;;;-0.50;99.90;;;;;;5056485;28;20031;-74
2023/02/27 04:54:46;;;;;;;2.15;2.05;;;-0.70;99.90;;;;;;5038127;28;20021;-75
2023/02/27 04:57:21;;;;;;;5.47;5.10;;;-0.80;99.90;;;;;;5056844;28;20051;-75
2023/02/27 04:59:51;;;;;;;3.70;3.50;;;-0.80;99.90;;;;;;5038935;28;20029;-74
2023/02/27 05:02:23;;;;;;;3.47;3.28;;;-0.70;99.90;;;;;;5056155;28;20032;-74
2023/02/27 05:04:53;;;;;;;7.03;6.53;;;-0.80;99.90;;;;;;5056058;28;20550;-75
2023/02/27 05:07:25;;;;;;;0.30;0.30;;;-0.80;99.90;;;;;;5037790;28;20071;-75
2023/02/27 05:09:59;;;;;;;0.20;0.20;;;-0.90;99.90;;;;;;5049854;28;20025;-75
2023/02/27 05:12:34;;;;;;;0.25;0.25;;;-0.90;99.90;;;;;;5056089;28;20028;-75
2023/02/27 05:15:08;;;;;;;0.30;0.30;;;-0.90;99.90;;;;;;5055857;28;20049;-75
2023/02/27 05:17:44;;;;;;;0.73;0.73;;;-0.80;99.90;;;;;;5056468;28;20029;-74
2023/02/27 05:20:11;;;;;;;0.35;0.35;;;-0.70;99.90;;;;;;5055652;28;20013;-75
2023/02/27 05:22:54;;;;;;;1.50;1.48;;;-0.70;99.90;;;;;;5056035;28;20028;-75
2023/02/27 05:25:42;;;;;;;0.23;0.23;;;-0.80;99.90;;;;;;5055982;28;20457;-74
2023/02/27 05:28:19;;;;;;;0.30;0.30;;;-0.90;99.90;;;;;;5037493;28;20456;-74
2023/02/27 05:31:08;;;;;;;3.83;3.53;;;-1.00;99.90;;;;;;5056403;28;20037;-75
2023/02/27 05:33:47;;;;;;;8.27;7.47;;;-1.10;99.90;;;;;;5055713;28;20052;-75
2023/02/27 05:36:19;;;;;;;4.78;4.47;;;-1.10;99.90;;;;;;5056088;28;20024;-75
2023/02/27 05:38:49;;;;;;;6.25;5.78;;;-1.10;99.90;;;;;;5055131;28;20485;-74
2023/02/27 05:41:24;;;;;;;0.20;0.20;;;-1.20;99.90;;;;;;5055486;28;20379;-75
2023/02/27 05:43:58;;;;;;;0.30;0.30;;;-1.20;99.90;;;;;;5055433;28;20025;-74
2023/02/27 05:46:30;;;;;;;1.63;1.55;;;-1.10;99.90;;;;;;5055726;28;20024;-75
2023/02/27 05:49:04;;;;;;;0.20;0.20;;;-1.10;99.90;;;;;;5055424;28;20074;-75
2023/02/27 05:51:33;;;;;;;0.20;0.20;;;-1.00;99.90;;;;;;5037652;28;20470;-74
2023/02/27 05:54:05;;;;;;;0.20;0.20;;;-0.90;99.90;;;;;;5055235;28;20444;-75
2023/02/27 05:56:34;;;;;;;0.20;0.20;;;-0.90;99.90;;;;;;5055539;28;20135;-75
2023/02/27 05:59:27;;;;;;;0.25;0.25;;;-0.90;99.90;;;;;;5054428;28;20513;-74
2023/02/27 06:01:53;;;;;;;0.30;0.30;;;-1.00;99.90;;;;;;5016789;28;20049;-75
2023/02/27 06:04:18;;;;;;;0.20;0.20;;;-1.00;99.90;;;;;;5037183;28;20555;-74
2023/02/27 06:06:44;;;;;;;0.20;0.20;;;-1.10;99.90;;;;;;5055105;28;20032;-75
2023/02/27 06:09:10;;;;;;;0.20;0.20;;;-1.10;99.90;;;;;;5055445;28;20116;-75
2023/02/27 06:11:35;;;;;;;0.20;0.20;;;-1.20;99.90;;;;;;5042571;28;20052;-74
2023/02/27 06:14:02;;;;;;;0.20;0.20;;;-1.10;99.90;;;;;;5035648;28;20112;-75
2023/02/27 06:16:27;;;;;;;0.20;0.20;;;-1.00;99.90;;;;;;5035015;28;20391;-75
2023/02/27 06:18:54;;;;;;;0.30;0.30;;;-1.20;99.90;;;;;;5035375;28;20083;-75
2023/02/27 06:21:22;;;;;;;0.20;0.20;;;-1.20;99.90;;;;;;5034276;28;20017;-75
2023/02/27 06:23:47;;;;;;;0.20;0.20;;;-1.30;99.90;;;;;;5035022;28;20022;-75
2023/02/27 06:26:13;;;;;;;0.20;0.20;;;-1.60;99.90;;;;;;5035047;28;20056;-75
2023/02/27 06:28:39;;;;;;;0.17;0.17;;;-1.70;99.90;;;;;;5034982;28;20025;-75
2023/02/27 06:31:05;;;;;;;0.30;0.30;;;-1.90;99.90;;;;;;5034784;28;20479;-74
2023/02/27 06:33:32;;;;;;;0.50;0.50;;;-2.00;99.90;;;;;;5034837;28;20121;-75
2023/02/27 06:35:57;;;;;;;0.30;0.30;;;-2.10;99.90;;;;;;5035582;28;20063;-75
2023/02/27 06:38:23;;;;;;;0.68;0.68;;;-2.10;99.90;;;;;;5051296;28;20100;-75
2023/02/27 06:40:50;;;;;;;3.78;3.47;;;-2.10;99.90;;;;;;5054889;28;20055;-75
2023/02/27 06:43:15;;;;;;;3.63;3.42;;;-2.10;99.90;;;;;;5040332;28;20104;-75
2023/02/27 06:45:41;;;;;;;1.83;1.73;;;-2.10;99.90;;;;;;5034224;28;20067;-74
2023/02/27 06:48:06;;;;;;;2.85;2.60;;;-2.10;99.90;;;;;;5053530;28;20036;-75
2023/02/27 06:50:32;;;;;;;4.93;4.55;;;-2.10;99.90;;;;;;5036836;28;20052;-75
2023/02/27 06:52:57;;;;;;;8.07;7.55;;;-2.00;99.90;;;;;;5054217;28;20505;-74
2023/02/27 06:55:24;;;;;;;2.15;2.05;;;-1.90;99.90;;;;;;5054290;28;20048;-74
2023/02/27 06:57:50;;;;;;;4.93;4.63;;;-1.90;99.90;;;;;;5054604;28;20032;-75
2023/02/27 07:00:16;;;;;;;0.30;0.30;;;-2.00;99.90;;;;;;5053627;28;20029;-75
2023/02/27 07:02:42;;;;;;;4.05;3.25;;;-2.10;99.90;;;;;;5054034;28;20371;-75
2023/02/27 07:05:08;;;;;;;8.77;8.02;;;-2.10;99.90;;;;;;5036031;28;20032;-75
2023/02/27 07:07:34;;;;;;;0.68;0.68;;;-2.10;99.90;;;;;;5054561;28;20017;-74
2023/02/27 07:10:00;;;;;;;2.83;2.72;;;-2.10;99.90;;;;;;5035932;28;20028;-75
2023/02/27 07:12:25;;;;;;;0.30;0.30;;;-2.10;99.90;;;;;;5034371;28;20022;-75
2023/02/27 07:14:51;;;;;;;1.25;1.20;;;-2.10;99.90;;;;;;5047013;28;20029;-73
2023/02/27 07:17:16;;;;;;;0.40;0.40;;;-2.00;99.90;;;;;;5054284;28;20036;-74
2023/02/27 07:19:42;;;;;;;1.38;1.38;;;-1.90;99.90;;;;;;5035707;28;20059;-75
2023/02/27 07:22:10;;;;;;;2.15;1.95;;;-1.70;99.90;;;;;;5054241;28;20029;-75
2023/02/27 07:24:36;;;;;;;2.60;2.40;;;-1.50;99.90;;;;;;5052793;28;20505;-74
2023/02/27 07:27:01;;;;;;;3.33;3.13;;;-1.20;99.90;;;;;;5037080;28;20025;-75
2023/02/27 07:29:27;;;;;;;5.05;4.65;;;-1.00;99.90;;;;;;5053394;28;20098;-76
2023/02/27 07:31:53;;;;;;;3.65;3.17;;;-0.70;99.90;;;;;;5035575;28;20162;-75
2023/02/27 07:34:18;;;;;;;3.00;2.70;;;-0.50;99.90;;;;;;5035673;28;20100;-75
2023/02/27 07:36:44;;;;;;;6.47;5.97;;;-0.30;99.90;;;;;;5053009;28;20033;-75
2023/02/27 07:39:11;;;;;;;6.07;4.53;;;-0.10;99.90;;;;;;5035761;28;20025;-75
2023/02/27 07:41:36;;;;;;;0.60;0.60;;;0.10;99.90;;;;;;5054118;28;20083;-75
2023/02/27 07:44:02;;;;;;;1.25;1.25;;;0.20;99.90;;;;;;5057381;28;20426;-75
2023/02/27 07:46:27;;;;;;;1.25;1.25;;;0.20;99.90;;;;;;5057602;28;20033;-76
2023/02/27 07:48:53;;;;;;;0.43;0.43;;;0.20;99.90;;;;;;5057545;28;20031;-76
2023/02/27 07:51:19;;;;;;;1.88;1.77;;;0.20;99.90;;;;;;5057439;28;20029;-76
2023/02/27 07:53:44;;;;;;;0.20;0.20;;;0.20;99.90;;;;;;5057633;28;20055;-76
2023/02/27 07:56:10;;;;;;;6.43;5.95;;;0.20;99.90;;;;;;5057310;28;20025;-75
2023/02/27 07:58:35;;;;;;;0.30;0.30;;;0.20;99.90;;;;;;5038031;28;20040;-76
2023/02/27 08:01:01;;;;;;;0.20;0.20;;;0.30;99.90;;;;;;5053195;28;20402;-75
2023/02/27 08:03:27;;;;;;;0.20;0.20;;;0.60;99.90;;;;;;5045000;28;20029;-76
2023/02/27 08:05:52;;;;;;;0.30;0.30;;;0.90;99.90;;;;;;5048255;28;20108;-74
2023/02/27 08:08:18;;;;;;;0.20;0.20;;;1.20;99.90;;;;;;5039578;28;20021;-75
2023/02/27 08:10:43;;;;;;;0.28;0.28;;;1.40;99.90;;;;;;5056854;28;20502;-74
2023/02/27 08:13:09;;;;;;;0.30;0.30;;;1.60;99.90;;;;;;5056733;28;20025;-74
2023/02/27 08:15:34;;;;;;;0.20;0.20;;;1.80;99.90;;;;;;5056589;28;20029;-74
2023/02/27 08:18:00;;;;;;;0.20;0.20;;;2.00;99.90;;;;;;5056771;28;20037;-74
2023/02/27 08:20:26;;;;;;;0.20;0.20;;;2.10;99.90;;;;;;5057247;28;20040;-75
2023/02/27 08:22:52;;;;;;;0.20;0.20;;;2.20;99.90;;;;;;5056352;28;20021;-74
2023/02/27 08:25:18;;;;;;;0.17;0.17;;;2.30;99.90;;;;;;5038582;28;20364;-74
2023/02/27 08:27:43;;;;;;;0.20;0.20;;;2.50;99.90;;;;;;5038303;28;20379;-74
2023/02/27 08:30:10;;;;;;;0.20;0.20;;;2.60;99.90;;;;;;5056674;28;20054;-75
2023/02/27 08:32:37;;;;;;;0.13;0.13;;;2.60;99.90;;;;;;5056479;28;20024;-75
2023/02/27 08:35:03;;;;;;;0.20;0.20;;;2.70;99.90;;;;;;5038580;28;20033;-74
2023/02/27 08:37:29;;;;;;;3.03;2.75;;;2.90;99.90;;;;;;5056365;28;20029;-75
2023/02/27 08:39:55;;;;;;;6.78;6.38;;;2.90;99.90;;;;;;5055929;28;20025;-74
2023/02/27 08:42:20;;;;;;;2.00;1.90;;;3.00;99.90;;;;;;5056710;28;20397;-74
2023/02/27 08:44:46;;;;;;;1.95;1.85;;;3.10;99.90;;;;;;5038343;28;20063;-75
2023/02/27 08:47:11;;;;;;;0.90;0.63;;;3.30;99.90;;;;;;5048025;28;20038;-75
2023/02/27 08:49:37;;;;;;;0.30;0.30;;;3.50;99.90;;;;;;5036275;28;20030;-74
2023/02/27 08:52:04;;;;;;;0.95;0.93;;;3.80;99.90;;;;;;5046865;28;20029;-74
2023/02/27 08:54:30;;;;;;;0.20;0.20;;;4.00;99.90;;;;;;5054657;28;20025;-74
2023/02/27 08:56:55;;;;;;;0.20;0.20;;;4.10;99.90;;;;;;5056207;28;20029;-74
2023/02/27 08:59:21;;;;;;;0.22;0.22;;;4.20;99.90;;;;;;5056509;28;20075;-74
2023/02/27 09:01:46;;;;;;;0.80;0.80;;;4.20;99.90;;;;;;5055642;28;20029;-73
2023/02/27 09:04:12;;;;;;;0.20;0.20;;;4.20;99.90;;;;;;5037441;28;20028;-71
2023/02/27 09:06:38;;;;;;;0.20;0.20;;;4.20;99.90;;;;;;5055372;28;20077;-73
2023/02/27 09:09:05;;;;;;;0.15;0.15;;;4.30;99.90;;;;;;5056072;28;20428;-73
2023/02/27 09:11:30;;;;;;;0.20;0.20;;;4.40;99.90;;;;;;5038092;28;20033;-74
2023/02/27 09:13:58;;;;;;;0.20;0.20;;;4.40;99.90;;;;;;5037386;28;20017;-74
2023/02/27 09:16:24;;;;;;;0.20;0.20;;;4.50;99.90;;;;;;5037094;28;20027;-73
2023/02/27 09:18:50;;;;;;;0.20;0.20;;;4.40;99.90;;;;;;5036169;28;20120;-72
2023/02/27 09:21:16;;;;;;;0.25;0.25;;;4.40;99.90;;;;;;5053115;28;20115;-73
2023/02/27 09:23:42;;;;;;;0.20;0.20;;;4.40;99.90;;;;;;5055336;28;20024;-73
2023/02/27 09:26:08;;;;;;;0.20;0.20;;;4.40;99.90;;;;;;5098012;23;20044;-72
2023/02/27 09:28:34;;;;;;;0.22;0.22;;;4.50;99.90;;;;;;5053848;28;20021;-72
2023/02/27 09:31:01;;;;;;;0.20;0.20;;;4.60;99.90;;;;;;5044590;28;20124;-73
2023/02/27 09:33:27;;;;;;;0.20;0.20;;;4.60;99.90;;;;;;5034956;28;20479;-73
2023/02/27 09:35:54;;;;;;;0.20;0.20;;;4.60;99.90;;;;;;5034299;28;20076;-72
2023/02/27 09:38:19;;;;;;;0.20;0.20;;;4.80;99.90;;;;;;5034402;28;20025;-73
2023/02/27 09:40:48;;;;;;;0.20;0.20;;;4.90;99.90;;;;;;5051041;28;20051;-72
2023/02/27 09:43:29;;;;;;;0.30;0.30;;;4.90;99.90;;;;;;5053386;28;20043;-71
2023/02/27 09:45:56;;;;;;;0.10;0.10;;;5.10;99.90;;;;;;5037322;28;20478;-72
2023/02/27 09:48:28;;;;;;;0.20;0.20;;;5.10;99.90;;;;;;5035884;28;20538;-72
2023/02/27 09:50:55;;;;;;;0.20;0.20;;;5.30;99.90;;;;;;5034242;28;20048;-72
2023/02/27 09:53:30;;;;;;;0.22;0.22;;;5.50;99.90;;;;;;5033941;28;20103;-72
2023/02/27 09:56:06;;;;;;;0.20;0.20;;;5.50;99.90;;;;;;5016416;28;20033;-71
2023/02/27 09:58:52;;;;;;;4.18;3.95;;;5.50;99.90;;;;;;5033606;28;20074;-72
2023/02/27 10:01:35;;;;;;;0.63;0.63;;;5.50;99.90;;;;;;5034097;28;20072;-71
2023/02/27 10:06:58;;;;;;;0.30;0.30;;;5.70;99.90;;;;;;5058812;22;20048;-72
2023/02/27 10:09:52;;;;;;;0.35;0.35;;;5.90;99.90;;;;;;5053365;28;20043;-72
2023/02/27 10:12:42;;;;;;;0.77;0.77;;;6.10;99.90;;;;;;5053288;28;20029;-72
2023/02/27 10:15:39;;;;;;;0.28;0.28;;;6.30;99.90;;;;;;5035830;28;20110;-72
2023/02/27 10:18:13;;;;;;;0.20;0.20;;;6.50;99.90;;;;;;5015952;28;20033;-73
2023/02/27 10:20:42;;;;;;;;;;;6.80;99.90;;;;;;5046017;28;20087;-73
2023/02/27 10:23:21;;;;;;;0.20;0.20;;;6.90;99.90;;;;;;5035551;28;19960;-73
2023/02/27 10:25:49;;;;;;;0.30;0.30;;;6.60;99.90;;;;;;5035483;28;20029;-73
2023/02/27 10:28:20;;;;;;;1.65;0.95;;;6.70;99.90;;;;;;5053349;28;20029;-73
2023/02/27 10:30:52;;;;;;;0.35;0.35;;;6.90;99.90;;;;;;5046241;28;20026;-73
2023/02/27 10:33:37;;;;;;;9.13;2.40;;;7.00;99.90;;;;;;5032169;28;20029;-73
2023/02/27 10:36:10;;;;;;;0.30;0.30;;;6.90;99.90;;;;;;5033160;28;20032;-73
2023/02/27 10:38:46;;;;;;;0.40;0.40;;;6.80;99.90;;;;;;5033035;28;20491;-73
2023/02/27 10:41:15;;;;;;;0.20;0.20;;;6.60;99.90;;;;;;5033085;28;20475;-73
2023/02/27 10:43:41;;;;;;;0.22;0.22;;;6.40;99.90;;;;;;5052600;28;20021;-73
2023/02/27 10:46:13;;;;;;;0.30;0.30;;;6.40;99.90;;;;;;5052815;28;20021;-73
2023/02/27 10:48:39;;;;;;;0.20;0.20;;;6.40;99.90;;;;;;5053299;28;20025;-73
2023/02/27 10:51:35;;;;;;;0.20;0.20;;;6.50;99.90;;;;;;5052323;28;20112;-73
2023/02/27 10:54:17;;;;;;;0.20;0.20;;;6.60;99.90;;;;;;5050621;28;20047;-73
2023/02/27 10:56:47;;;;;;;0.20;0.20;;;6.60;99.90;;;;;;5052789;28;20540;-73
2023/02/27 10:59:32;;;;;;;6.72;4.43;;;6.70;99.90;;;;;;5035052;28;20394;-73
2023/02/27 11:02:00;;;;;;;0.70;0.70;;;6.60;99.90;;;;;;5052384;28;20029;-73
2023/02/27 11:04:32;;;;;;;0.52;0.50;;;6.80;99.90;;;;;;5052633;28;20549;-73
2023/02/27 11:07:00;;;;;;;0.40;0.40;;;6.90;99.90;;;;;;5034844;28;20405;-73
2023/02/27 11:09:32;;;;;;;0.30;0.30;;;6.90;99.90;;;;;;5052807;28;20092;-73
2023/02/27 11:12:25;;;;;;;0.30;0.30;;;6.90;99.90;;;;;;5052821;28;20040;-73
2023/02/27 11:15:19;;;;;;;0.20;0.20;;;6.80;99.90;;;;;;5052447;28;20025;-73
2023/02/27 11:17:48;;;;;;;0.30;0.30;;;6.80;99.90;;;;;;5037954;28;20037;-73
2023/02/27 11:20:29;;;;;;;0.30;0.30;;;6.90;99.90;;;;;;5057305;28;20028;-73
2023/02/27 11:23:24;;;;;;;0.20;0.20;;;7.00;99.90;;;;;;5056597;28;20029;-73
2023/02/27 11:26:07;;;;;;;0.28;0.28;;;7.20;99.90;;;;;;5046573;28;20029;-73
2023/02/27 11:28:33;;;;;;;0.20;0.20;;;7.40;99.90;;;;;;5056833;28;20104;-73
2023/02/27 11:31:22;;;;;;;0.30;0.30;;;7.70;99.90;;;;;;5044023;28;20100;-73
2023/02/27 11:33:51;;;;;;;0.20;0.20;;;7.90;99.90;;;;;;5037601;28;20048;-73
2023/02/27 11:36:16;;;;;;;0.65;0.55;;;7.90;99.90;;;;;;5054889;28;20079;-73
2023/02/27 11:38:51;;;;;;;1.48;0.57;;;8.00;99.90;;;;;;5058904;28;20041;-73
2023/02/27 11:41:18;;;;;;;0.30;0.30;;;7.80;99.90;;;;;;5059716;28;20367;-73
2023/02/27 11:43:51;;;;;;;0.20;0.20;;;7.80;99.90;;;;;;5059110;28;20021;-73
2023/02/27 11:46:22;;;;;;;0.38;0.38;;;7.80;99.90;;;;;;5056554;28;20075;-73
2023/02/27 11:49:02;;;;;;;0.30;0.30;;;7.90;99.90;;;;;;5046881;28;20513;-73
2023/02/27 11:51:35;;;;;;;0.20;0.20;;;8.10;99.90;;;;;;5054207;28;20029;-73
2023/02/27 11:56:42;;;;;;;0.20;0.20;;;8.20;99.90;;;;;;5063774;22;19967;-73
2023/02/27 11:59:11;;;;;;;2.17;0.93;;;8.30;99.90;;;;;;5056401;28;20021;-73
2023/02/27 12:01:42;;;;;;;0.20;0.20;;;8.50;99.90;;;;;;5056126;28;20071;-73
2023/02/27 12:04:22;;;;;;;0.20;0.20;;;8.40;99.90;;;;;;5037496;28;20029;-73
2023/02/27 12:07:04;;;;;;;0.30;0.30;;;8.50;99.90;;;;;;5031915;28;20025;-72
2023/02/27 12:09:43;;;;;;;0.22;0.22;;;8.50;99.90;;;;;;5036365;28;20414;-72
2023/02/27 12:12:41;;;;;;;0.30;0.30;;;8.50;99.90;;;;;;5036271;28;20029;-72
2023/02/27 12:15:26;;;;;;;0.25;0.25;;;8.60;99.90;;;;;;5027415;28;20045;-73
2023/02/27 12:18:20;;;;;;;0.20;0.20;;;8.70;99.90;;;;;;5036265;28;20021;-73
2023/02/27 12:20:50;;;;;;;0.30;0.30;;;9.10;99.90;;;;;;5035740;28;20064;-73
2023/02/27 12:23:25;;;;;;;0.20;0.20;;;9.10;99.90;;;;;;5036159;28;20096;-72
2023/02/27 12:26:31;;;;;;;0.40;0.40;;;9.20;99.90;;;;;;5035116;28;20026;-71
2023/02/27 12:29:13;;;;;;;0.20;0.20;;;9.30;99.90;;;;;;5033553;28;20167;-73
2023/02/27 12:32:06;;;;;;;0.20;0.20;;;9.00;99.90;;;;;;5035539;28;20086;-73
2023/02/27 12:34:42;;;;;;;0.30;0.30;;;9.10;99.90;;;;;;5035667;28;20547;-73
2023/02/27 12:37:16;;;;;;;0.20;0.20;;;9.10;99.90;;;;;;5035563;28;20395;-73
2023/02/27 12:39:43;;;;;;;0.20;0.20;;;9.50;99.90;;;;;;5035679;28;20060;-73
2023/02/27 12:42:36;;;;;;;0.20;0.20;;;9.50;99.90;;;;;;5035474;28;20041;-72
2023/02/27 12:45:16;;;;;;;0.20;0.20;;;9.70;99.90;;;;;;5035380;28;20483;-73
2023/02/27 12:47:47;;;;;;;0.20;0.20;;;9.80;99.90;;;;;;5017139;28;20068;-73
2023/02/27 12:50:21;;;;;;;0.35;0.35;;;10.00;99.90;;;;;;5035279;28;20069;-72
2023/02/27 12:53:02;;;;;;;0.30;0.30;;;10.40;99.90;;;;;;5035666;28;20021;-72
2023/02/27 12:55:32;;;;;;;0.68;0.60;;;11.00;99.90;;;;;;5034813;28;20120;-72
2023/02/27 12:58:23;;;;;;;0.20;0.20;;;11.40;99.90;;;;;;5035782;28;20372;-72
2023/02/27 13:01:12;;;;;;;0.20;0.20;;;11.10;99.90;;;;;;5034982;28;20083;-73
2023/02/27 13:04:01;;;;;;;0.20;0.20;;;10.60;99.90;;;;;;5035667;28;20382;-73
2023/02/27 13:06:50;;;;;;;0.20;0.20;;;11.10;99.90;;;;;;5027265;22;20380;-72
2023/02/27 13:09:35;;;;;;;0.20;0.20;;;11.60;99.90;;;;;;5034601;28;20041;-72
2023/02/27 13:12:30;;;;;;;0.30;0.30;;;12.00;99.90;;;;;;5035291;28;20021;-72
2023/02/27 13:15:03;;;;;;;0.20;0.20;;;11.60;99.90;;;;;;5035076;28;20032;-72
2023/02/27 13:17:37;;;;;;;0.20;0.20;;;11.30;99.90;;;;;;5034970;28;20029;-72
2023/02/27 13:20:29;;;;;;;0.20;0.20;;;11.30;99.90;;;;;;5033866;28;20402;-72
2023/02/27 13:23:03;;;;;;;0.20;0.20;;;11.00;99.90;;;;;;5020031;28;20055;-72
2023/02/27 13:25:30;;;;;;;0.20;0.20;;;10.50;99.90;;;;;;5014792;28;20022;-72
2023/02/27 13:28:06;;;;;;;0.17;0.17;;;10.30;99.90;;;;;;5017416;28;20607;-73